createdAt,value
2022-08-10T00:01:53.568Z,22.41
2022-08-10T00:04:24.831Z,22.31
2022-08-10T00:06:54.344Z,21.91
2022-08-10T00:09:25.414Z,22.06
2022-08-10T00:11:54.321Z,21.91
2022-08-10T00:14:22.764Z,21.75
2022-08-10T00:16:53.364Z,21.68
2022-08-10T00:19:21.971Z,21.67
2022-08-10T00:21:51.077Z,21.58
2022-08-10T00:24:20.879Z,21.59
2022-08-10T00:27:50.068Z,21.53
2022-08-10T00:29:40.062Z,21.25
2022-08-10T00:32:09.302Z,21.11
2022-08-10T00:34:37.522Z,21.30
2022-08-10T00:37:06.189Z,21.10
2022-08-10T00:39:36.345Z,20.89
2022-08-10T00:42:10.835Z,20.92
2022-08-10T00:44:40.184Z,21.09
2022-08-10T00:47:35.420Z,20.97
2022-08-10T00:49:59.105Z,21.18
2022-08-10T00:52:29.107Z,21.27
2022-08-10T00:54:58.144Z,21.24
2022-08-10T00:57:28.942Z,21.13
2022-08-10T00:59:59.787Z,21.07
2022-08-10T01:02:31.036Z,20.97
2022-08-10T01:05:02.515Z,20.83
2022-08-10T01:07:58.344Z,20.83
2022-08-10T01:10:42.960Z,20.81
2022-08-10T01:13:23.746Z,20.60
2022-08-10T01:16:01.345Z,20.48
2022-08-10T01:18:41.672Z,20.58
2022-08-10T01:21:34.793Z,20.54
2022-08-10T01:24:26.457Z,20.51
2022-08-10T01:27:17.277Z,20.42
2022-08-10T01:30:08.125Z,20.45
2022-08-10T01:32:48.344Z,20.52
2022-08-10T01:35:23.892Z,20.40
2022-08-10T01:38:02.270Z,20.40
2022-08-10T01:40:34.252Z,20.36
2022-08-10T01:43:08.090Z,20.27
2022-08-10T01:45:44.848Z,20.34
2022-08-10T01:48:31.910Z,20.41
2022-08-10T01:51:06.426Z,20.09
2022-08-10T01:53:41.750Z,20.06
2022-08-10T01:56:12.526Z,20.25
2022-08-10T01:58:42.333Z,20.19
2022-08-10T02:01:17.364Z,20.19
2022-08-10T02:04:04.045Z,20.16
2022-08-10T02:06:39.154Z,19.91
2022-08-10T02:09:09.559Z,19.96
2022-08-10T02:11:55.847Z,19.76
2022-08-10T02:14:33.599Z,19.71
2022-08-10T02:17:08.017Z,19.76
2022-08-10T02:19:40.002Z,19.75
2022-08-10T02:22:36.729Z,19.86
2022-08-10T02:25:02.421Z,20.07
2022-08-10T02:27:31.322Z,20.08
2022-08-10T02:30:00.576Z,20.02
2022-08-10T02:32:38.162Z,20.04
2022-08-10T02:35:18.666Z,20.00
2022-08-10T02:37:52.715Z,20.16
2022-08-10T02:45:01.996Z,20.10
2022-08-10T02:45:18.409Z,20.20
2022-08-10T02:46:18.241Z,20.29
2022-08-10T02:48:57.092Z,20.23
2022-08-10T02:52:06.695Z,20.15
2022-08-10T02:54:25.871Z,20.12
2022-08-10T02:56:58.635Z,20.15
2022-08-10T02:59:40.074Z,20.10
2022-08-10T03:02:12.515Z,20.02
2022-08-10T03:04:55.138Z,19.92
2022-08-10T03:07:42.857Z,20.16
2022-08-10T03:10:17.217Z,20.27
2022-08-10T03:12:50.680Z,20.28
2022-08-10T03:15:22.142Z,20.30
2022-08-10T03:17:57.389Z,20.30
2022-08-10T03:20:37.651Z,20.26
2022-08-10T03:23:11.647Z,20.24
2022-08-10T03:25:41.218Z,20.27
2022-08-10T03:28:23.670Z,20.20
2022-08-10T03:30:54.045Z,20.27
2022-08-10T03:33:23.628Z,20.16
2022-08-10T03:36:40.112Z,20.10
2022-08-10T03:38:43.784Z,20.07
2022-08-10T03:41:16.082Z,19.83
2022-08-10T03:43:52.017Z,19.60
2022-08-10T03:46:23.526Z,19.56
2022-08-10T03:48:55.598Z,19.70
2022-08-10T03:51:27.870Z,19.66
2022-08-10T03:54:04.839Z,19.79
2022-08-10T03:56:39.948Z,19.45
2022-08-10T03:59:10.395Z,19.52
2022-08-10T04:02:43.754Z,19.43
2022-08-10T04:04:27.539Z,19.42
2022-08-10T04:07:02.152Z,19.27
2022-08-10T04:09:53.921Z,19.31
2022-08-10T04:12:20.819Z,19.15
2022-08-10T04:14:51.910Z,18.92
2022-08-10T04:18:01.125Z,18.87
2022-08-10T04:20:20.634Z,18.87
2022-08-10T04:22:53.673Z,18.77
2022-08-10T04:25:25.462Z,18.82
2022-08-10T04:27:55.399Z,18.82
2022-08-10T04:30:27.917Z,18.68
2022-08-10T04:32:57.975Z,18.43
2022-08-10T04:35:29.318Z,18.70
2022-08-10T04:38:00.673Z,18.78
2022-08-10T04:40:31.049Z,18.91
2022-08-10T04:43:11.839Z,18.97
2022-08-10T04:45:49.964Z,18.72
2022-08-10T04:48:42.243Z,19.07
2022-08-10T04:51:15.417Z,19.12
2022-08-10T04:54:06.124Z,19.13
2022-08-10T04:56:37.113Z,19.34
2022-08-10T04:59:06.702Z,19.34
2022-08-10T05:02:21.393Z,19.55
2022-08-10T05:04:35.955Z,19.49
2022-08-10T05:07:08.582Z,19.54
2022-08-10T05:10:01.255Z,19.52
2022-08-10T05:12:27.551Z,19.52
2022-08-10T05:14:56.168Z,19.49
2022-08-10T05:17:26.193Z,19.53
2022-08-10T05:20:01.763Z,19.57
2022-08-10T05:22:33.607Z,19.60
2022-08-10T05:25:03.728Z,19.54
2022-08-10T05:27:33.789Z,19.63
2022-08-10T05:30:03.635Z,19.75
2022-08-10T05:32:32.930Z,19.79
2022-08-10T05:35:22.101Z,20.04
2022-08-10T05:38:10.428Z,20.10
2022-08-10T05:40:46.820Z,20.11
2022-08-10T05:43:18.349Z,20.10
2022-08-10T05:46:18.904Z,20.08
2022-08-10T05:48:55.411Z,20.22
2022-08-10T05:51:27.847Z,20.43
2022-08-10T05:54:03.022Z,20.46
2022-08-10T05:56:56.844Z,20.53
2022-08-10T06:00:11.182Z,20.64
2022-08-10T06:02:41.136Z,20.51
2022-08-10T06:05:11.632Z,20.90
2022-08-10T06:07:44.231Z,20.76
2022-08-10T06:10:31.478Z,20.90
2022-08-10T06:13:30.137Z,20.80
2022-08-10T06:16:06.108Z,20.78
2022-08-10T06:18:35.111Z,20.80
2022-08-10T06:21:03.931Z,21.03
2022-08-10T06:23:33.146Z,21.17
2022-08-10T06:26:09.553Z,21.03
2022-08-10T06:29:02.313Z,21.24
2022-08-10T06:31:47.105Z,21.43
2022-08-10T06:34:21.894Z,21.69
2022-08-10T06:36:51.411Z,21.80
2022-08-10T06:39:36.493Z,21.86
2022-08-10T06:45:12.353Z,22.05
2022-08-10T06:47:45.277Z,22.08
2022-08-10T06:50:45.052Z,22.25
2022-08-10T06:53:13.389Z,22.39
2022-08-10T06:55:55.525Z,22.48
2022-08-10T06:58:30.723Z,22.76
2022-08-10T07:01:03.226Z,22.77
2022-08-10T07:03:38.337Z,23.09
2022-08-10T07:06:09.503Z,23.13
2022-08-10T07:08:39.550Z,23.21
2022-08-10T07:11:12.152Z,23.30
2022-08-10T07:14:17.034Z,23.41
2022-08-10T07:16:33.449Z,23.49
2022-08-10T07:19:03.829Z,23.52
2022-08-10T07:21:33.308Z,23.80
2022-08-10T07:24:05.214Z,23.88
2022-08-10T07:26:35.243Z,24.01
2022-08-10T07:29:05.754Z,23.95
2022-08-10T07:31:56.907Z,24.02
2022-08-10T07:34:30.117Z,24.10
2022-08-10T07:37:02.606Z,24.42
2022-08-10T07:40:03.980Z,24.18
2022-08-10T07:42:26.181Z,24.32
2022-08-10T07:44:54.558Z,24.41
2022-08-10T07:47:46.232Z,24.80
2022-08-10T07:50:22.459Z,24.67
2022-08-10T07:52:54.923Z,24.74
2022-08-10T07:56:04.216Z,25.06
2022-08-10T07:58:13.052Z,25.21
2022-08-10T08:00:42.538Z,25.08
2022-08-10T08:03:15.296Z,25.15
2022-08-10T08:05:58.444Z,25.37
2022-08-10T08:08:32.430Z,25.61
2022-08-10T08:11:02.103Z,25.60
2022-08-10T08:13:32.296Z,25.74
2022-08-10T08:16:17.189Z,25.74
2022-08-10T08:19:25.546Z,25.87
2022-08-10T08:24:06.555Z,26.03
2022-08-10T08:24:34.858Z,26.01
2022-08-10T08:27:04.542Z,26.09
2022-08-10T08:29:36.115Z,25.87
2022-08-10T08:32:06.003Z,26.36
2022-08-10T08:34:39.164Z,26.60
2022-08-10T08:37:10.636Z,26.34
2022-08-10T08:39:44.160Z,26.30
2022-08-10T08:42:36.622Z,26.63
2022-08-10T08:45:20.169Z,26.94
2022-08-10T08:48:09.714Z,27.12
2022-08-10T08:50:57.365Z,26.97
2022-08-10T08:54:02.008Z,27.30
2022-08-10T08:56:41.073Z,27.55
2022-08-10T08:59:32.223Z,27.82
2022-08-10T09:02:19.915Z,27.73
2022-08-10T09:05:18.474Z,27.80
2022-08-10T09:08:12.563Z,28.16
2022-08-10T09:10:51.820Z,28.12
2022-08-10T09:13:29.571Z,28.39
2022-08-10T09:16:10.235Z,28.13
2022-08-10T09:18:49.804Z,28.02
2022-08-10T09:21:24.897Z,28.60
2022-08-10T09:24:06.428Z,28.86
2022-08-10T09:26:44.867Z,28.42
2022-08-10T09:29:17.236Z,28.69
2022-08-10T09:31:55.916Z,28.81
2022-08-10T09:36:24.400Z,28.74
2022-08-10T09:38:01.683Z,28.92
2022-08-10T09:41:03.072Z,29.01
2022-08-10T09:43:41.237Z,29.32
2022-08-10T09:46:20.297Z,28.95
2022-08-10T09:49:00.241Z,29.41
2022-08-10T09:51:46.776Z,29.70
2022-08-10T09:54:49.078Z,29.80
2022-08-10T09:57:51.744Z,29.75
2022-08-10T10:00:28.766Z,29.97
2022-08-10T10:03:10.189Z,29.75
2022-08-10T10:05:51.964Z,29.82
2022-08-10T10:08:29.473Z,29.72
2022-08-10T10:11:09.802Z,29.72
2022-08-10T10:14:04.373Z,30.44
2022-08-10T10:16:47.938Z,29.83
2022-08-10T10:19:40.009Z,30.28
2022-08-10T10:22:26.478Z,30.32
2022-08-10T10:25:20.807Z,30.72
2022-08-10T10:27:59.533Z,30.67
2022-08-10T10:30:36.777Z,30.84
2022-08-10T10:33:14.551Z,31.19
2022-08-10T10:35:49.876Z,31.20
2022-08-10T10:38:20.334Z,30.94
2022-08-10T10:40:54.589Z,30.86
2022-08-10T10:43:41.876Z,31.40
2022-08-10T10:46:24.255Z,31.65
2022-08-10T10:49:04.469Z,31.33
2022-08-10T10:51:36.042Z,31.08
2022-08-10T10:54:13.208Z,31.20
2022-08-10T10:56:56.910Z,31.52
2022-08-10T10:59:55.897Z,31.77
2022-08-10T11:02:40.076Z,31.70
2022-08-10T11:05:20.619Z,31.36
2022-08-10T11:07:57.022Z,30.72
2022-08-10T11:10:34.664Z,31.14
2022-08-10T11:14:25.929Z,31.88
2022-08-10T11:16:19.784Z,32.44
2022-08-10T11:19:15.875Z,32.72
2022-08-10T11:21:57.212Z,32.46
2022-08-10T11:24:47.038Z,32.39
2022-08-10T11:27:25.099Z,32.97
2022-08-10T11:30:04.098Z,32.63
2022-08-10T11:32:40.258Z,32.93
2022-08-10T11:35:20.324Z,32.44
2022-08-10T11:38:34.436Z,32.42
2022-08-10T11:41:05.584Z,32.48
2022-08-10T11:44:10.703Z,32.70
2022-08-10T11:46:46.301Z,32.82
2022-08-10T11:49:19.779Z,32.86
2022-08-10T11:51:54.136Z,32.91
2022-08-10T11:54:32.026Z,33.31
2022-08-10T11:57:02.796Z,34.02
2022-08-10T11:59:57.921Z,34.04
2022-08-10T12:02:33.279Z,33.55
2022-08-10T12:05:08.627Z,33.72
2022-08-10T12:09:23.996Z,33.71
2022-08-10T12:10:37.463Z,33.50
2022-08-10T12:13:13.105Z,33.00
2022-08-10T12:15:48.247Z,33.19
2022-08-10T12:18:31.186Z,33.47
2022-08-10T12:21:05.083Z,34.16
2022-08-10T12:23:44.193Z,33.94
2022-08-10T12:26:16.697Z,34.27
2022-08-10T12:28:52.107Z,34.40
2022-08-10T12:31:25.568Z,34.05
2022-08-10T12:34:07.048Z,33.58
2022-08-10T12:36:41.622Z,33.52
2022-08-10T12:39:20.075Z,33.51
2022-08-10T12:41:54.795Z,34.01
2022-08-10T12:44:35.708Z,33.87
2022-08-10T12:47:22.452Z,34.31
2022-08-10T12:50:29.300Z,34.57
2022-08-10T12:52:53.831Z,35.04
2022-08-10T12:55:25.233Z,35.26
2022-08-10T12:57:56.882Z,33.70
2022-08-10T13:00:32.343Z,33.76
2022-08-10T13:03:03.829Z,34.15
2022-08-10T13:06:00.340Z,34.31
2022-08-10T13:08:42.066Z,33.94
2022-08-10T13:11:18.436Z,34.47
2022-08-10T13:14:10.579Z,34.36
2022-08-10T13:16:42.530Z,35.25
2022-08-10T13:19:15.910Z,35.32
2022-08-10T13:21:45.434Z,34.70
2022-08-10T13:24:17.651Z,35.47
2022-08-10T13:27:25.319Z,34.37
2022-08-10T13:29:49.757Z,34.19
2022-08-10T13:32:23.686Z,34.71
2022-08-10T13:34:53.903Z,35.25
2022-08-10T13:37:26.896Z,35.41
2022-08-10T13:40:00.430Z,35.91
2022-08-10T13:42:37.186Z,35.97
2022-08-10T13:45:12.562Z,35.26
2022-08-10T13:47:48.680Z,34.61
2022-08-10T13:50:33.359Z,34.99
2022-08-10T13:53:13.934Z,35.65
2022-08-10T13:55:53.336Z,35.70
2022-08-10T13:58:28.176Z,36.11
2022-08-10T14:01:01.761Z,35.88
2022-08-10T14:03:37.625Z,35.32
2022-08-10T14:06:10.070Z,35.37
2022-08-10T14:08:41.453Z,35.11
2022-08-10T14:11:16.005Z,35.21
2022-08-10T14:13:54.983Z,35.92
2022-08-10T14:16:24.869Z,35.81
2022-08-10T14:18:56.381Z,35.93
2022-08-10T14:21:25.935Z,35.99
2022-08-10T14:23:54.500Z,35.69
2022-08-10T14:26:26.539Z,35.05
2022-08-10T14:29:00.358Z,34.79
2022-08-10T14:31:33.806Z,34.51
2022-08-10T14:34:08.750Z,34.36
2022-08-10T14:36:42.465Z,33.82
2022-08-10T14:39:16.797Z,35.49
2022-08-10T14:42:04.455Z,35.25
2022-08-10T14:44:48.926Z,35.77
2022-08-10T14:47:52.782Z,35.43
2022-08-10T14:50:32.592Z,36.58
2022-08-10T14:53:09.478Z,36.20
2022-08-10T14:55:57.530Z,36.01
2022-08-10T14:58:31.395Z,36.40
2022-08-10T15:01:02.674Z,36.84
2022-08-10T15:03:59.491Z,37.24
2022-08-10T15:06:31.001Z,36.68
2022-08-10T15:09:12.218Z,36.11
2022-08-10T15:12:15.253Z,36.91
2022-08-10T15:14:43.311Z,36.65
2022-08-10T15:17:18.180Z,36.07
2022-08-10T15:20:04.463Z,36.35
2022-08-10T15:22:40.443Z,35.85
2022-08-10T15:25:19.041Z,36.41
2022-08-10T15:27:55.701Z,35.99
2022-08-10T15:30:32.409Z,35.45
2022-08-10T15:33:57.045Z,35.49
2022-08-10T15:36:34.733Z,35.85
2022-08-10T15:39:16.510Z,36.13
2022-08-10T15:42:02.206Z,37.00
2022-08-10T15:44:38.894Z,36.68
2022-08-10T15:47:11.198Z,36.32
2022-08-10T15:49:53.191Z,36.16
2022-08-10T15:52:39.627Z,36.64
2022-08-10T15:55:43.646Z,36.84
2022-08-10T15:58:14.694Z,36.81
2022-08-10T16:00:51.561Z,37.21
2022-08-10T16:03:27.725Z,37.70
2022-08-10T16:06:03.373Z,37.51
2022-08-10T16:08:56.355Z,36.82
2022-08-10T16:11:38.161Z,35.89
2022-08-10T16:14:19.985Z,36.00
2022-08-10T16:16:54.906Z,36.39
2022-08-10T16:19:27.256Z,36.07
2022-08-10T16:22:36.433Z,36.73
2022-08-10T16:24:54.032Z,36.61
2022-08-10T16:27:29.268Z,35.95
2022-08-10T16:30:01.086Z,36.25
2022-08-10T16:32:34.175Z,36.19
2022-08-10T16:35:09.144Z,36.69
2022-08-10T16:37:56.712Z,36.09
2022-08-10T16:40:29.862Z,36.33
2022-08-10T16:43:00.644Z,36.37
2022-08-10T16:45:39.005Z,36.74
2022-08-10T16:48:09.440Z,36.89
2022-08-10T16:50:42.247Z,36.42
2022-08-10T16:53:17.391Z,36.77
2022-08-10T16:55:50.728Z,37.47
2022-08-10T16:58:25.146Z,37.74
2022-08-10T17:00:54.754Z,37.72
2022-08-10T17:04:08.255Z,37.04
2022-08-10T17:06:26.283Z,37.00
2022-08-10T17:08:59.886Z,37.36
2022-08-10T17:11:32.108Z,37.08
2022-08-10T17:14:02.958Z,37.59
2022-08-10T17:16:38.803Z,36.79
2022-08-10T17:19:14.076Z,36.68
2022-08-10T17:21:51.786Z,36.47
2022-08-10T17:24:25.751Z,36.60
2022-08-10T17:26:57.845Z,36.87
2022-08-10T17:29:58.200Z,35.82
2022-08-10T17:32:28.838Z,35.49
2022-08-10T17:35:00.617Z,35.10
2022-08-10T17:37:35.446Z,35.25
2022-08-10T17:40:09.683Z,34.20
2022-08-10T17:42:41.618Z,34.81
2022-08-10T17:45:20.975Z,34.59
2022-08-10T17:48:08.358Z,33.88
2022-08-10T17:50:43.274Z,33.86
2022-08-10T17:53:17.777Z,34.00
2022-08-10T17:55:50.265Z,33.83
2022-08-10T17:58:22.167Z,33.55
2022-08-10T18:00:56.909Z,33.88
2022-08-10T18:03:46.923Z,33.63
2022-08-10T18:06:17.243Z,33.50
2022-08-10T18:08:52.629Z,33.84
2022-08-10T18:11:25.519Z,33.79
2022-08-10T18:13:57.664Z,34.00
2022-08-10T18:16:30.504Z,33.42
2022-08-10T18:19:04.438Z,32.99
2022-08-10T18:21:34.397Z,33.03
2022-08-10T18:24:14.157Z,33.16
2022-08-10T18:26:52.349Z,32.93
2022-08-10T18:29:26.062Z,32.42
2022-08-10T18:32:00.578Z,32.20
2022-08-10T18:34:33.827Z,31.83
2022-08-10T18:37:04.953Z,31.16
2022-08-10T18:39:37.965Z,31.27
2022-08-10T18:42:16.070Z,30.92
2022-08-10T18:44:50.457Z,30.68
2022-08-10T18:47:36.945Z,30.85
2022-08-10T18:50:10.522Z,30.41
2022-08-10T18:52:43.996Z,30.58
2022-08-10T18:55:24.615Z,30.36
2022-08-10T19:01:43.924Z,30.42
2022-08-10T19:04:30.324Z,30.09
2022-08-10T19:07:29.218Z,29.51
2022-08-10T19:10:18.122Z,28.69
2022-08-10T19:12:54.874Z,28.97
2022-08-10T19:15:31.480Z,28.73
2022-08-10T19:18:19.028Z,28.82
2022-08-10T19:20:52.998Z,28.73
2022-08-10T19:23:43.714Z,28.59
2022-08-10T19:26:43.683Z,28.44
2022-08-10T19:30:09.895Z,28.11
2022-08-10T19:32:31.626Z,28.22
2022-08-10T19:35:12.549Z,28.04
2022-08-10T19:38:00.658Z,28.32
2022-08-10T19:40:44.358Z,28.17
2022-08-10T19:43:30.967Z,27.67
2022-08-10T19:46:19.526Z,27.68
2022-08-10T19:48:56.798Z,27.79
2022-08-10T19:51:30.284Z,27.64
2022-08-10T19:54:04.962Z,27.32
2022-08-10T19:56:45.539Z,27.38
2022-08-10T20:00:17.613Z,27.25
2022-08-10T20:02:23.545Z,27.42
2022-08-10T20:05:04.169Z,27.41
2022-08-10T20:07:45.067Z,27.13
2022-08-10T20:10:19.349Z,27.19
2022-08-10T20:12:57.540Z,26.82
2022-08-10T20:15:42.100Z,27.04
2022-08-10T20:18:14.367Z,27.08
2022-08-10T20:20:50.760Z,26.84
2022-08-10T20:23:25.618Z,26.88
2022-08-10T20:25:58.224Z,26.74
2022-08-10T20:28:39.560Z,26.96
2022-08-10T20:31:17.020Z,26.49
2022-08-10T20:34:01.291Z,26.69
2022-08-10T20:36:33.806Z,26.61
2022-08-10T20:39:18.205Z,26.60
2022-08-10T20:41:58.804Z,26.38
2022-08-10T20:44:39.236Z,26.51
2022-08-10T20:47:13.216Z,26.40
2022-08-10T20:49:49.166Z,26.27
2022-08-10T20:52:18.605Z,26.15
2022-08-10T20:54:52.499Z,26.12
2022-08-10T20:57:56.929Z,26.15
2022-08-10T21:00:37.975Z,25.93
2022-08-10T21:03:31.305Z,25.83
2022-08-10T21:06:41.138Z,25.74
2022-08-10T21:09:21.801Z,25.50
2022-08-10T21:12:12.971Z,25.63
2022-08-10T21:14:51.798Z,25.80
2022-08-10T21:17:39.362Z,25.66
2022-08-10T21:20:31.084Z,25.43
2022-08-10T21:23:05.284Z,25.59
2022-08-10T21:25:45.513Z,25.39
2022-08-10T21:28:38.614Z,25.37
2022-08-10T21:31:21.818Z,25.37
2022-08-10T21:34:03.826Z,25.18
2022-08-10T21:36:33.993Z,25.24
2022-08-10T21:39:11.314Z,25.18
2022-08-10T21:42:04.832Z,25.15
2022-08-10T21:45:09.023Z,25.24
2022-08-10T21:48:17.115Z,24.98
2022-08-10T21:51:16.450Z,24.97
2022-08-10T21:54:21.725Z,25.04
2022-08-10T21:57:26.578Z,25.04
2022-08-10T22:00:19.588Z,24.94
2022-08-10T22:03:10.605Z,25.00
2022-08-10T22:05:58.701Z,24.89
2022-08-10T22:08:54.067Z,24.87
2022-08-10T22:11:43.475Z,24.72
2022-08-10T22:14:33.532Z,24.35
2022-08-10T22:18:01.103Z,24.41
2022-08-10T22:20:38.522Z,24.37
2022-08-10T22:23:38.540Z,24.21
2022-08-10T22:26:38.133Z,24.01
2022-08-10T22:29:42.201Z,23.95
2022-08-10T22:32:41.245Z,23.97
2022-08-10T22:36:01.297Z,23.92
2022-08-10T22:39:02.600Z,23.85
2022-08-10T22:41:59.939Z,23.77
2022-08-10T22:44:48.175Z,23.73
2022-08-10T22:47:38.707Z,23.78
2022-08-10T22:50:10.382Z,23.70
2022-08-10T22:53:02.039Z,23.60
2022-08-10T22:55:53.061Z,23.41
2022-08-10T22:58:38.964Z,23.42
2022-08-10T23:01:14.909Z,23.41
2022-08-10T23:03:52.831Z,23.43
2022-08-10T23:06:28.000Z,23.52
2022-08-10T23:09:01.943Z,23.66
2022-08-10T23:11:35.255Z,23.43
2022-08-10T23:14:06.469Z,23.47
2022-08-10T23:16:59.237Z,23.53
2022-08-10T23:19:31.940Z,23.45
2022-08-10T23:22:07.405Z,23.46
2022-08-10T23:24:40.358Z,23.60
2022-08-10T23:27:38.265Z,23.59
2022-08-10T23:30:11.031Z,23.70
2022-08-10T23:32:47.268Z,23.63
2022-08-10T23:36:31.401Z,23.54
2022-08-10T23:38:09.385Z,23.57
2022-08-10T23:40:38.455Z,23.51
2022-08-10T23:43:08.727Z,23.58
2022-08-10T23:45:52.985Z,23.49
2022-08-10T23:48:26.378Z,23.23
2022-08-10T23:50:59.804Z,23.23
2022-08-10T23:53:31.655Z,23.32
2022-08-10T23:56:04.443Z,23.33
2022-08-10T23:58:43.555Z,23.19
